Time;durP1;ratioP1;P1;durP2;ratioP2;P2;SDS_P1;SDS_P2;PMS_P1;PMS_P2;Temp;Humidity;BMP_temperature;BMP_pressure;BME280_temperature;BME280_humidity;BME280_pressure;Samples;Min_cycle;Max_cycle;Signal;HPM_P1;HPM_P2
2022/03/13 00:02:27;;;;;;;18.83;8.20;;;0.10;99.90;;;;;;6237104;28;20298;-76
2022/03/13 00:05:35;;;;;;;26.73;9.27;;;0.00;99.90;;;;;;6238953;28;20308;-76
2022/03/13 00:08:41;;;;;;;15.93;8.90;;;0.00;99.90;;;;;;6238281;28;20591;-76
2022/03/13 00:11:46;;;;;;;17.67;8.50;;;0.00;99.90;;;;;;6238243;28;20298;-77
2022/03/13 00:14:52;;;;;;;17.00;8.27;;;-0.10;99.90;;;;;;6238885;28;20266;-77
2022/03/13 00:17:59;;;;;;;18.67;8.73;;;-0.20;99.90;;;;;;6237877;28;20483;-76
2022/03/13 00:21:05;;;;;;;17.20;8.90;;;-0.20;99.90;;;;;;6238126;28;20278;-76
2022/03/13 00:24:14;;;;;;;15.60;9.40;;;-0.20;99.90;;;;;;6238466;28;20271;-76
2022/03/13 00:27:19;;;;;;;18.13;9.00;;;-0.20;99.90;;;;;;6238096;28;20594;-76
2022/03/13 00:30:24;;;;;;;13.17;8.83;;;-0.30;99.90;;;;;;6237113;28;20290;-76
2022/03/13 00:33:31;;;;;;;23.10;9.50;;;-0.30;99.90;;;;;;6237849;28;20481;-76
2022/03/13 00:36:36;;;;;;;21.70;9.53;;;-0.40;99.90;;;;;;6237343;28;20294;-76
2022/03/13 00:39:44;;;;;;;18.53;9.37;;;-0.40;99.90;;;;;;6238479;28;20279;-76
2022/03/13 00:42:50;;;;;;;19.77;9.47;;;-0.40;99.90;;;;;;6237875;28;20298;-76
2022/03/13 00:45:56;;;;;;;15.33;9.40;;;-0.40;99.90;;;;;;6238147;28;20270;-76
2022/03/13 00:49:03;;;;;;;18.83;9.77;;;-0.40;99.90;;;;;;6236723;28;20284;-76
2022/03/13 00:52:10;;;;;;;17.20;9.03;;;-0.50;99.90;;;;;;6237569;28;20298;-77
2022/03/13 00:55:15;;;;;;;15.63;9.00;;;-0.60;99.90;;;;;;6237716;28;20455;-76
2022/03/13 00:58:21;;;;;;;24.40;10.40;;;-0.50;99.90;;;;;;6237364;28;20297;-76
2022/03/13 01:01:27;;;;;;;23.17;9.47;;;-0.50;99.90;;;;;;6237410;28;20293;-77
2022/03/13 01:04:34;;;;;;;18.57;9.43;;;-0.50;99.90;;;;;;6237765;28;20298;-76
2022/03/13 01:07:41;;;;;;;18.50;9.80;;;-0.60;99.90;;;;;;6236444;28;20305;-76
2022/03/13 01:10:50;;;;;;;17.93;10.27;;;-0.60;99.90;;;;;;6237351;28;20468;-76
2022/03/13 01:13:56;;;;;;;19.07;9.30;;;-0.60;99.90;;;;;;6236970;28;20300;-76
2022/03/13 01:17:05;;;;;;;17.27;10.33;;;-0.60;99.90;;;;;;6237048;28;20301;-76
2022/03/13 01:20:19;;;;;;;19.17;10.10;;;-0.60;99.90;;;;;;6237897;28;20271;-76
2022/03/13 01:23:24;;;;;;;22.93;10.87;;;-0.60;99.90;;;;;;6236806;28;20296;-76
2022/03/13 01:26:38;;;;;;;23.77;10.23;;;-0.60;99.90;;;;;;6236834;28;20310;-75
2022/03/13 01:29:44;;;;;;;21.07;9.97;;;-0.60;99.90;;;;;;6236671;28;20462;-75
2022/03/13 01:32:55;;;;;;;19.93;10.33;;;-0.60;99.90;;;;;;6236499;28;20310;-75
2022/03/13 01:36:01;;;;;;;18.33;10.23;;;-0.60;99.90;;;;;;6235955;28;20273;-75
2022/03/13 01:39:08;;;;;;;20.47;11.13;;;-0.60;99.90;;;;;;6236716;28;20465;-76
2022/03/13 01:42:13;;;;;;;25.57;11.03;;;-0.70;99.90;;;;;;6236970;28;20595;-75
2022/03/13 01:45:20;;;;;;;22.13;10.53;;;-0.70;99.90;;;;;;6237070;28;20273;-76
2022/03/13 01:48:25;;;;;;;27.67;11.87;;;-0.70;99.90;;;;;;6236681;28;20302;-75
2022/03/13 01:51:33;;;;;;;24.97;11.90;;;-0.60;99.90;;;;;;6236413;28;20310;-76
2022/03/13 01:54:40;;;;;;;20.07;11.33;;;-0.50;99.90;;;;;;6236699;28;20278;-75
2022/03/13 01:57:47;;;;;;;31.00;11.90;;;-0.50;99.90;;;;;;6236380;28;20330;-76
2022/03/13 02:00:52;;;;;;;23.43;11.53;;;-0.50;99.90;;;;;;6235711;28;20286;-75
2022/03/13 02:03:58;;;;;;;25.27;12.13;;;-0.60;99.90;;;;;;6235790;28;20278;-75
2022/03/13 02:07:06;;;;;;;21.87;11.17;;;-0.60;99.90;;;;;;6235739;28;20491;-76
2022/03/13 02:10:17;;;;;;;24.77;11.90;;;-0.60;99.90;;;;;;6236758;28;20274;-76
2022/03/13 02:13:22;;;;;;;20.63;11.10;;;-0.70;99.90;;;;;;6236078;28;20611;-76
2022/03/13 02:16:29;;;;;;;23.93;11.80;;;-0.70;99.90;;;;;;6235542;28;20315;-76
2022/03/13 02:19:35;;;;;;;23.73;11.60;;;-0.70;99.90;;;;;;6241405;28;20269;-76
2022/03/13 02:22:48;;;;;;;25.53;11.23;;;-0.70;99.90;;;;;;6240821;28;20400;-76
2022/03/13 02:25:56;;;;;;;23.00;11.93;;;-0.80;99.90;;;;;;6241412;28;20274;-76
2022/03/13 02:29:03;;;;;;;22.70;11.37;;;-0.70;99.90;;;;;;6240220;28;20273;-76
2022/03/13 02:32:09;;;;;;;20.70;11.17;;;-0.70;99.90;;;;;;6240301;28;20300;-76
2022/03/13 02:35:14;;;;;;;24.10;11.70;;;-0.70;99.90;;;;;;6241176;28;20277;-76
2022/03/13 02:38:21;;;;;;;24.43;11.13;;;-0.70;99.90;;;;;;6240554;28;20298;-76
2022/03/13 02:41:27;;;;;;;19.30;10.83;;;-0.70;99.90;;;;;;6240237;28;20415;-76
2022/03/13 02:44:32;;;;;;;23.40;11.80;;;-0.80;99.90;;;;;;6241026;28;20280;-76
2022/03/13 02:47:37;;;;;;;27.23;11.63;;;-0.90;99.90;;;;;;6240147;28;20296;-75
2022/03/13 02:50:43;;;;;;;25.93;11.93;;;-1.00;99.90;;;;;;6240781;28;20277;-75
2022/03/13 02:53:50;;;;;;;24.83;11.47;;;-0.90;99.90;;;;;;6239941;28;20307;-75
2022/03/13 02:56:55;;;;;;;24.17;11.83;;;-0.80;99.90;;;;;;6240099;28;20301;-75
2022/03/13 03:00:01;;;;;;;24.27;11.50;;;-0.90;99.90;;;;;;6240436;28;20574;-76
2022/03/13 03:03:07;;;;;;;27.10;12.43;;;-1.00;99.90;;;;;;6239520;28;20304;-75
2022/03/13 03:06:14;;;;;;;29.57;11.67;;;-0.90;99.90;;;;;;6239315;28;20297;-76
2022/03/13 03:09:20;;;;;;;23.27;11.97;;;-0.90;99.90;;;;;;6240608;28;20273;-75
2022/03/13 03:12:27;;;;;;;24.60;12.47;;;-0.80;99.90;;;;;;6239859;28;20301;-75
2022/03/13 03:15:33;;;;;;;25.47;11.47;;;-0.80;99.90;;;;;;6240172;28;20273;-75
2022/03/13 03:18:38;;;;;;;23.73;11.90;;;-0.80;99.90;;;;;;6239724;28;20297;-74
2022/03/13 03:21:44;;;;;;;30.00;12.47;;;-0.80;99.90;;;;;;6239389;28;20301;-75
2022/03/13 03:24:50;;;;;;;25.43;11.53;;;-0.80;99.90;;;;;;6239604;28;20466;-76
2022/03/13 03:27:58;;;;;;;25.03;11.07;;;-0.90;99.90;;;;;;6239791;28;20299;-76
2022/03/13 03:31:04;;;;;;;27.10;10.97;;;-1.00;99.90;;;;;;6238424;28;20573;-76
2022/03/13 03:34:13;;;;;;;20.97;10.87;;;-1.00;99.90;;;;;;6239195;28;20292;-75
2022/03/13 03:37:19;;;;;;;26.50;11.63;;;-1.00;99.90;;;;;;6239213;28;20297;-75
2022/03/13 03:40:29;;;;;;;30.50;12.13;;;-0.90;99.90;;;;;;6239469;28;20560;-75
2022/03/13 03:43:35;;;;;;;24.90;12.17;;;-0.90;99.90;;;;;;6238770;28;20320;-75
2022/03/13 03:46:40;;;;;;;25.00;11.53;;;-1.00;99.90;;;;;;6238538;28;20299;-75
2022/03/13 03:49:46;;;;;;;27.03;11.77;;;-1.00;99.90;;;;;;6239533;28;20270;-76
2022/03/13 03:52:55;;;;;;;26.50;12.73;;;-1.00;99.90;;;;;;6238555;28;20323;-75
2022/03/13 03:56:03;;;;;;;25.50;12.43;;;-1.00;99.90;;;;;;6238955;28;20270;-75
2022/03/13 03:59:09;;;;;;;26.17;11.80;;;-1.10;99.90;;;;;;6239422;28;20551;-76
2022/03/13 04:02:14;;;;;;;23.57;12.23;;;-1.10;99.90;;;;;;6237668;28;20277;-76
2022/03/13 04:05:20;;;;;;;26.23;11.90;;;-1.10;99.90;;;;;;6238689;28;20289;-76
2022/03/13 04:08:25;;;;;;;21.83;11.50;;;-1.10;99.90;;;;;;6238125;28;20299;-75
2022/03/13 04:11:32;;;;;;;21.93;12.00;;;-1.10;99.90;;;;;;6238602;28;20265;-75
2022/03/13 04:14:38;;;;;;;31.30;12.13;;;-1.20;99.90;;;;;;6238265;28;20302;-75
2022/03/13 04:17:43;;;;;;;27.50;11.10;;;-1.10;99.90;;;;;;6238521;28;20299;-75
2022/03/13 04:20:48;;;;;;;21.03;10.37;;;-1.10;99.90;;;;;;6238457;28;20273;-76
2022/03/13 04:23:54;;;;;;;24.77;11.70;;;-1.10;99.90;;;;;;6237862;28;20315;-75
2022/03/13 04:27:01;;;;;;;22.20;11.10;;;-1.10;99.90;;;;;;6238439;28;20276;-76
2022/03/13 04:30:08;;;;;;;23.27;11.73;;;-1.20;99.90;;;;;;6237766;28;20304;-76
2022/03/13 04:33:16;;;;;;;23.23;11.23;;;-1.10;99.90;;;;;;6237680;28;20303;-75
2022/03/13 04:36:21;;;;;;;27.20;11.57;;;-1.00;99.90;;;;;;6238237;28;20267;-76
2022/03/13 04:39:26;;;;;;;24.70;12.10;;;-1.10;99.90;;;;;;6238039;28;20301;-75
2022/03/13 04:42:33;;;;;;;25.57;11.43;;;-1.10;99.90;;;;;;6237236;28;20296;-76
2022/03/13 04:45:38;;;;;;;23.63;11.97;;;-1.10;99.90;;;;;;6238261;28;20301;-75
2022/03/13 04:48:44;;;;;;;24.17;11.47;;;-1.20;99.90;;;;;;6237413;28;20486;-76
2022/03/13 04:51:49;;;;;;;23.00;11.20;;;-1.30;99.90;;;;;;6238114;28;20276;-75
2022/03/13 04:54:54;;;;;;;23.77;11.17;;;-1.30;99.90;;;;;;6237120;28;20303;-76
2022/03/13 04:58:01;;;;;;;25.23;11.60;;;-1.30;99.90;;;;;;6237410;28;20298;-75
2022/03/13 05:01:06;;;;;;;28.60;11.47;;;-1.20;99.90;;;;;;6237257;28;20434;-76
2022/03/13 05:04:12;;;;;;;26.63;10.47;;;-1.30;99.90;;;;;;6237421;28;20300;-75
2022/03/13 05:07:21;;;;;;;22.50;10.97;;;-1.30;99.90;;;;;;6237363;28;20320;-76
2022/03/13 05:10:36;;;;;;;21.80;10.87;;;-1.30;99.90;;;;;;6220390;28;20590;-75
2022/03/13 05:13:42;;;;;;;24.07;10.70;;;-1.30;99.90;;;;;;6236799;28;20309;-75
2022/03/13 05:16:51;;;;;;;25.37;11.43;;;-1.30;99.90;;;;;;6237499;28;20364;-75
2022/03/13 05:19:56;;;;;;;19.93;11.13;;;-1.30;99.90;;;;;;6236827;28;20312;-76
2022/03/13 05:23:05;;;;;;;19.63;10.93;;;-1.30;99.90;;;;;;6236843;28;20301;-76
2022/03/13 05:26:11;;;;;;;24.30;10.63;;;-1.30;99.90;;;;;;6237491;28;20272;-75
2022/03/13 05:29:18;;;;;;;27.23;11.87;;;-1.30;99.90;;;;;;6236477;28;20307;-75
2022/03/13 05:32:23;;;;;;;21.10;11.03;;;-1.30;99.90;;;;;;6236431;28;20303;-76
2022/03/13 05:35:29;;;;;;;26.90;11.63;;;-1.30;99.90;;;;;;6237363;28;20298;-76
2022/03/13 05:38:35;;;;;;;18.40;10.87;;;-1.20;99.90;;;;;;6236482;28;20295;-76
2022/03/13 05:41:42;;;;;;;18.67;11.30;;;-1.20;99.90;;;;;;6237167;28;20488;-75
2022/03/13 05:44:49;;;;;;;23.87;11.13;;;-1.20;99.90;;;;;;6236678;28;20300;-75
2022/03/13 05:47:58;;;;;;;20.77;11.00;;;-1.20;99.90;;;;;;6236853;28;20294;-75
2022/03/13 05:51:03;;;;;;;25.97;11.00;;;-1.20;99.90;;;;;;6236702;28;20271;-75
2022/03/13 05:54:09;;;;;;;21.93;10.77;;;-1.10;99.90;;;;;;6235648;28;20308;-75
2022/03/13 05:57:17;;;;;;;21.20;10.73;;;-1.10;99.90;;;;;;6237014;28;20272;-76
2022/03/13 06:00:25;;;;;;;24.63;10.90;;;-1.10;99.90;;;;;;6237514;28;20294;-75
2022/03/13 06:03:30;;;;;;;18.97;10.27;;;-1.10;99.90;;;;;;6237137;28;20294;-75
2022/03/13 06:06:36;;;;;;;22.97;11.23;;;-1.10;99.90;;;;;;6223580;28;20297;-75
2022/03/13 06:09:41;;;;;;;25.40;10.50;;;-1.10;99.90;;;;;;6211165;28;20319;-76
2022/03/13 06:12:47;;;;;;;19.80;10.60;;;-1.10;99.90;;;;;;6188190;28;20293;-76
2022/03/13 06:15:53;;;;;;;23.83;10.63;;;-1.00;99.90;;;;;;6188928;28;20294;-76
2022/03/13 06:18:59;;;;;;;24.40;10.80;;;-1.00;99.90;;;;;;6188413;28;20297;-75
2022/03/13 06:22:04;;;;;;;20.10;10.83;;;-1.00;99.90;;;;;;6188147;28;20283;-75
2022/03/13 06:25:11;;;;;;;21.53;10.20;;;-0.90;99.90;;;;;;6188536;28;20292;-75
2022/03/13 06:28:21;;;;;;;20.80;10.73;;;-0.80;99.90;;;;;;6188041;28;20601;-76
2022/03/13 06:31:28;;;;;;;18.60;10.77;;;-0.70;99.90;;;;;;6188291;28;20277;-75
2022/03/13 06:34:34;;;;;;;20.97;10.50;;;-0.70;99.90;;;;;;6187974;28;20302;-76
2022/03/13 06:37:40;;;;;;;25.37;10.40;;;-0.60;99.90;;;;;;6187525;28;20522;-75
2022/03/13 06:40:51;;;;;;;21.77;11.07;;;-0.60;99.90;;;;;;6188384;28;20267;-76
2022/03/13 06:43:57;;;;;;;21.37;10.67;;;-0.50;99.90;;;;;;6187507;28;20457;-75
2022/03/13 06:47:04;;;;;;;26.97;11.00;;;-0.40;99.90;;;;;;6187895;28;20560;-76
2022/03/13 06:50:11;;;;;;;24.37;10.73;;;-0.30;99.90;;;;;;6187635;28;20295;-75
2022/03/13 06:53:19;;;;;;;20.90;10.47;;;-0.20;99.90;;;;;;6188145;28;20311;-75
2022/03/13 06:56:24;;;;;;;22.63;10.27;;;-0.10;99.90;;;;;;6188442;28;20294;-75
2022/03/13 06:59:29;;;;;;;24.00;10.43;;;0.00;99.90;;;;;;6188026;28;20299;-75
2022/03/13 07:02:36;;;;;;;22.07;10.33;;;0.10;99.90;;;;;;6188635;28;20291;-75
2022/03/13 07:05:43;;;;;;;19.77;9.40;;;0.30;99.90;;;;;;6203992;28;20489;-75
2022/03/13 07:08:51;;;;;;;18.67;10.10;;;0.30;99.90;;;;;;6240380;28;20302;-75
2022/03/13 07:11:57;;;;;;;18.60;10.80;;;0.40;99.90;;;;;;6240939;28;20282;-75
2022/03/13 07:15:08;;;;;;;20.37;10.47;;;0.40;99.90;;;;;;6239950;28;20615;-75
2022/03/13 07:18:18;;;;;;;19.10;9.50;;;0.60;99.90;;;;;;6240707;28;20303;-75
2022/03/13 07:21:23;;;;;;;18.33;9.47;;;0.60;99.90;;;;;;6241195;28;20274;-75
2022/03/13 07:24:28;;;;;;;16.37;10.03;;;0.70;99.90;;;;;;6240240;28;20298;-76
2022/03/13 07:27:34;;;;;;;17.33;9.30;;;0.70;99.90;;;;;;6239555;28;20291;-75
2022/03/13 07:30:40;;;;;;;15.97;8.43;;;0.70;99.90;;;;;;6240791;28;20275;-76
2022/03/13 07:33:47;;;;;;;18.17;9.60;;;0.80;99.90;;;;;;6239010;28;20637;-75
2022/03/13 07:36:52;;;;;;;13.43;8.63;;;0.90;99.90;;;;;;6240274;28;20472;-75
2022/03/13 07:39:59;;;;;;;19.37;8.77;;;1.00;99.90;;;;;;6239727;28;20304;-76
2022/03/13 07:43:05;;;;;;;16.50;8.93;;;1.00;99.90;;;;;;6239802;28;20303;-74
2022/03/13 07:46:11;;;;;;;14.87;8.33;;;1.00;99.90;;;;;;6239976;28;20267;-75
2022/03/13 07:49:19;;;;;;;18.03;8.57;;;1.10;99.90;;;;;;6239697;28;20590;-75
2022/03/13 07:52:24;;;;;;;18.53;7.90;;;1.10;99.90;;;;;;6239488;28;20296;-75
2022/03/13 07:55:34;;;;;;;18.77;8.13;;;1.20;99.90;;;;;;6239626;28;20290;-75
2022/03/13 07:58:39;;;;;;;15.10;7.80;;;1.20;99.90;;;;;;6239349;28;20614;-76
2022/03/13 08:01:44;;;;;;;20.77;8.47;;;1.20;99.90;;;;;;6239841;28;20274;-75
2022/03/13 08:04:51;;;;;;;15.07;6.50;;;1.40;99.90;;;;;;6238913;28;20315;-75
2022/03/13 08:07:56;;;;;;;14.80;7.13;;;1.70;99.90;;;;;;6239242;28;20302;-75
2022/03/13 08:11:01;;;;;;;17.33;7.40;;;1.90;99.90;;;;;;6239264;28;20270;-75
2022/03/13 08:14:08;;;;;;;15.47;7.33;;;1.80;99.90;;;;;;6238738;28;20319;-75
2022/03/13 08:17:15;;;;;;;18.73;7.67;;;1.70;99.90;;;;;;6238008;28;20460;-75
2022/03/13 08:20:22;;;;;;;12.87;6.80;;;1.80;99.90;;;;;;6239514;28;20272;-76
2022/03/13 08:23:27;;;;;;;14.40;7.07;;;1.70;99.90;;;;;;6238634;28;20311;-75
2022/03/13 08:26:33;;;;;;;19.47;6.93;;;1.90;99.90;;;;;;6238635;28;20279;-76
2022/03/13 08:29:38;;;;;;;18.90;6.77;;;1.90;99.90;;;;;;6238133;28;20296;-76
2022/03/13 08:32:43;;;;;;;13.17;6.80;;;2.00;99.90;;;;;;6237929;28;20299;-75
2022/03/13 08:35:50;;;;;;;17.80;6.57;;;2.20;99.90;;;;;;6238550;28;20294;-76
2022/03/13 08:38:55;;;;;;;12.47;6.00;;;2.30;99.90;;;;;;6238212;28;20584;-75
2022/03/13 08:42:01;;;;;;;18.47;7.10;;;2.30;99.90;;;;;;6237618;28;20467;-76
2022/03/13 08:45:09;;;;;;;16.87;6.43;;;2.20;99.90;;;;;;6237847;28;20275;-75
2022/03/13 08:48:15;;;;;;;18.10;7.20;;;2.30;99.90;;;;;;6237621;28;20595;-75
2022/03/13 08:51:23;;;;;;;26.53;6.50;;;2.40;99.90;;;;;;6238151;28;20272;-76
2022/03/13 08:54:29;;;;;;;19.10;6.67;;;2.50;99.90;;;;;;6237684;28;20297;-76
2022/03/13 08:57:34;;;;;;;31.90;7.27;;;2.50;99.90;;;;;;6237515;28;20298;-75
2022/03/13 09:00:42;;;;;;;16.87;6.77;;;2.50;99.90;;;;;;6237759;28;20278;-76
2022/03/13 09:03:48;;;;;;;19.70;6.23;;;2.50;99.90;;;;;;6237415;28;20290;-76
2022/03/13 09:06:57;;;;;;;13.53;6.53;;;2.50;99.90;;;;;;6237925;28;20301;-76
2022/03/13 09:10:04;;;;;;;16.17;6.37;;;2.60;99.90;;;;;;6236572;28;20285;-76
2022/03/13 09:13:11;;;;;;;14.17;5.70;;;2.70;99.90;;;;;;6237913;28;20304;-76
2022/03/13 09:16:19;;;;;;;13.07;5.90;;;2.80;99.90;;;;;;6237793;28;20298;-76
2022/03/13 09:19:24;;;;;;;13.27;6.07;;;3.00;99.90;;;;;;6237336;28;20302;-76
2022/03/13 09:22:32;;;;;;;13.43;5.93;;;3.10;99.90;;;;;;6237340;28;20294;-77
2022/03/13 09:25:37;;;;;;;14.97;5.63;;;3.10;99.90;;;;;;6237796;28;20327;-76
2022/03/13 09:28:42;;;;;;;14.20;5.53;;;3.80;99.90;;;;;;6236785;28;20300;-77
2022/03/13 09:31:48;;;;;;;8.23;5.13;;;4.30;98.90;;;;;;6238118;28;20263;-77
2022/03/13 09:34:53;;;;;;;9.93;4.87;;;4.60;96.70;;;;;;6237752;28;20298;-78
2022/03/13 09:38:00;;;;;;;10.50;4.83;;;4.40;97.20;;;;;;6237390;28;20311;-77
2022/03/13 09:41:06;;;;;;;19.70;5.20;;;4.20;98.20;;;;;;6237533;28;20561;-76
2022/03/13 09:44:12;;;;;;;21.63;5.70;;;4.00;98.70;;;;;;6236495;28;20304;-77
2022/03/13 09:47:18;;;;;;;13.23;4.40;;;3.80;99.10;;;;;;6237002;28;20272;-75
2022/03/13 09:50:23;;;;;;;9.67;4.73;;;3.80;98.50;;;;;;6237514;28;20272;-75
2022/03/13 09:53:30;;;;;;;13.57;4.63;;;3.80;98.40;;;;;;6237119;28;20301;-76
2022/03/13 09:56:37;;;;;;;16.57;5.10;;;3.80;98.40;;;;;;6237622;28;20275;-75
2022/03/13 09:59:43;;;;;;;9.47;4.40;;;3.80;97.60;;;;;;6237089;28;20303;-76
2022/03/13 10:02:48;;;;;;;11.63;3.77;;;3.90;96.20;;;;;;6236440;28;20290;-76
2022/03/13 10:05:56;;;;;;;14.53;3.93;;;3.90;97.80;;;;;;6237268;28;20302;-76
2022/03/13 10:09:27;;;;;;;8.93;4.40;;;4.00;96.40;;;;;;6236850;28;20307;-76
2022/03/13 10:12:32;;;;;;;9.20;4.03;;;4.00;96.20;;;;;;6237173;28;20301;-76
2022/03/13 10:15:42;;;;;;;7.60;3.93;;;4.00;96.30;;;;;;6237301;28;20274;-76
2022/03/13 10:18:48;;;;;;;11.77;4.27;;;4.30;94.30;;;;;;6237207;28;20315;-76
2022/03/13 10:22:04;;;;;;;12.90;4.30;;;5.20;90.00;;;;;;6237248;28;20276;-77
2022/03/13 10:25:15;;;;;;;12.47;3.60;;;5.20;90.80;;;;;;6236456;28;20434;-76
2022/03/13 10:28:22;;;;;;;7.03;4.10;;;5.00;92.30;;;;;;6236629;28;20308;-77
2022/03/13 10:31:27;;;;;;;15.10;4.30;;;4.90;93.00;;;;;;6237354;28;20271;-76
2022/03/13 10:34:33;;;;;;;13.17;3.57;;;4.90;92.70;;;;;;6236621;28;20297;-77
2022/03/13 10:37:40;;;;;;;13.37;3.67;;;5.20;91.60;;;;;;6235908;28;20307;-76
2022/03/13 10:40:51;;;;;;;9.00;3.40;;;5.10;92.10;;;;;;6241833;28;20276;-77
2022/03/13 10:43:58;;;;;;;9.80;4.07;;;5.20;90.80;;;;;;6241365;28;20376;-77
2022/03/13 10:47:08;;;;;;;7.73;3.60;;;5.20;91.90;;;;;;6241512;28;20274;-77
2022/03/13 10:50:17;;;;;;;8.93;3.87;;;5.40;90.60;;;;;;6240886;28;20277;-76
2022/03/13 10:53:23;;;;;;;10.27;3.33;;;5.40;90.80;;;;;;6240412;28;20303;-77
2022/03/13 10:56:30;;;;;;;7.10;3.47;;;5.40;90.00;;;;;;6241241;28;20269;-77
2022/03/13 10:59:36;;;;;;;3.57;3.27;;;6.00;76.70;;;;;;6240525;28;20300;-75
2022/03/13 11:02:41;;;;;;;7.67;2.90;;;6.00;76.80;;;;;;6240368;28;20289;-75
2022/03/13 11:05:49;;;;;;;4.97;3.20;;;6.00;76.40;;;;;;6240024;28;20305;-75
2022/03/13 11:08:56;;;;;;;6.23;3.07;;;6.20;65.90;;;;;;6239966;28;20307;-76
2022/03/13 11:12:06;;;;;;;7.43;3.27;;;6.10;75.00;;;;;;6239899;28;20270;-76
2022/03/13 11:15:13;;;;;;;5.27;3.00;;;6.10;69.20;;;;;;6240358;28;20274;-75
2022/03/13 11:18:21;;;;;;;8.33;3.47;;;6.00;76.10;;;;;;6239683;28;20302;-76
2022/03/13 11:21:26;;;;;;;12.20;2.80;;;6.10;65.50;;;;;;6240020;28;20274;-75
2022/03/13 11:24:32;;;;;;;9.60;2.80;;;6.30;64.70;;;;;;6240036;28;20298;-76
2022/03/13 11:27:41;;;;;;;6.43;3.03;;;6.30;69.00;;;;;;6222450;28;20315;-76
2022/03/13 11:30:46;;;;;;;7.33;2.53;;;6.30;70.40;;;;;;6240937;28;20279;-75
2022/03/13 11:34:13;;;;;;;5.20;2.80;;;6.90;57.00;;;;;;6239582;28;20303;-77
2022/03/13 11:37:31;;;;;;;8.90;2.53;;;6.70;60.20;;;;;;6239387;28;20281;-77
2022/03/13 11:40:38;;;;;;;11.07;2.77;;;6.70;57.90;;;;;;6240264;28;20294;-77
2022/03/13 11:43:46;;;;;;;15.57;2.60;;;6.70;57.40;;;;;;6239145;28;20298;-76
2022/03/13 11:46:54;;;;;;;11.13;2.77;;;6.70;55.50;;;;;;6239705;28;20271;-79
2022/03/13 11:49:59;;;;;;;7.27;2.63;;;6.70;56.40;;;;;;6238511;28;20312;-77
2022/03/13 11:53:17;;;;;;;10.37;2.60;;;6.90;53.60;;;;;;6237830;28;20483;-77
2022/03/13 11:56:50;;;;;;;10.13;2.60;;;6.90;52.80;;;;;;6239446;28;20464;-77
2022/03/13 12:00:32;;;;;;;6.50;2.40;;;7.40;49.80;;;;;;6239237;28;20386;-76
2022/03/13 12:03:38;;;;;;;7.43;2.50;;;7.30;50.60;;;;;;6239468;28;20291;-77
2022/03/13 12:06:46;;;;;;;5.90;2.50;;;7.30;50.60;;;;;;6239247;28;20300;-77
2022/03/13 12:09:51;;;;;;;6.07;2.40;;;7.40;49.70;;;;;;6239470;28;20304;-77
2022/03/13 12:13:06;;;;;;;4.60;2.20;;;7.40;48.00;;;;;;6238917;28;20473;-77
2022/03/13 12:16:15;;;;;;;4.77;2.20;;;7.50;47.50;;;;;;6238611;28;20273;-77
2022/03/13 12:19:20;;;;;;;7.20;2.20;;;7.40;48.90;;;;;;6238359;28;20301;-77
2022/03/13 12:22:28;;;;;;;2.33;2.13;;;7.50;48.40;;;;;;6238039;28;20300;-76
2022/03/13 12:25:34;;;;;;;2.07;1.90;;;7.30;50.50;;;;;;6238756;28;20279;-76
2022/03/13 12:28:40;;;;;;;4.40;1.87;;;7.30;49.40;;;;;;6237965;28;20292;-76
2022/03/13 12:31:48;;;;;;;10.27;2.13;;;7.40;44.80;;;;;;6238892;28;20271;-77
2022/03/13 12:34:56;;;;;;;4.10;1.60;;;7.60;41.50;;;;;;6237733;28;20324;-77
2022/03/13 12:38:02;;;;;;;5.67;1.60;;;7.80;40.80;;;;;;6238453;28;20612;-76
2022/03/13 12:41:10;;;;;;;1.93;1.50;;;7.70;38.10;;;;;;6238063;28;20296;-76
2022/03/13 12:44:17;;;;;;;2.13;1.03;;;8.00;35.60;;;;;;6238848;28;20329;-77
2022/03/13 12:47:29;;;;;;;0.90;0.90;;;8.20;31.00;;;;;;6238884;28;20292;-76
2022/03/13 12:50:39;;;;;;;2.05;1.95;;;8.50;29.40;;;;;;6238738;28;20536;-76
2022/03/13 12:53:53;;;;;;;13.40;8.50;;;8.20;33.20;;;;;;6238241;28;20296;-76
2022/03/13 12:57:00;;;;;;;8.40;4.87;;;8.00;35.20;;;;;;6238289;28;20277;-76
2022/03/13 13:00:10;;;;;;;6.37;3.53;;;8.00;33.80;;;;;;6236601;28;20415;-76
2022/03/13 13:03:18;;;;;;;11.00;6.93;;;8.00;32.50;;;;;;6237033;28;20583;-76
2022/03/13 13:06:31;;;;;;;6.27;2.50;;;8.10;32.90;;;;;;6238050;28;20480;-76
2022/03/13 13:09:37;;;;;;;3.08;1.48;;;8.30;30.40;;;;;;6237728;28;20308;-77
2022/03/13 13:12:43;;;;;;;1.90;1.20;;;8.60;28.30;;;;;;6237836;28;20292;-75
2022/03/13 13:15:56;;;;;;;1.55;1.50;;;8.60;29.20;;;;;;6238621;28;20277;-76
2022/03/13 13:19:02;;;;;;;6.15;1.63;;;8.40;30.90;;;;;;6236961;28;20317;-76
2022/03/13 13:22:11;;;;;;;8.38;1.20;;;8.30;31.20;;;;;;6236929;28;20272;-76
2022/03/13 13:25:19;;;;;;;1.60;1.00;;;8.20;31.70;;;;;;6238188;28;20284;-75
2022/03/13 13:28:24;;;;;;;8.77;1.08;;;8.20;32.30;;;;;;6238298;28;20296;-76
2022/03/13 13:31:30;;;;;;;8.52;0.95;;;8.20;29.50;;;;;;6237810;28;20275;-78
2022/03/13 13:34:37;;;;;;;5.70;1.20;;;8.40;28.20;;;;;;6237180;28;20300;-77
2022/03/13 13:38:07;;;;;;;4.23;0.97;;;8.50;26.80;;;;;;6236952;28;20304;-77
2022/03/13 13:41:14;;;;;;;1.15;0.82;;;8.40;27.20;;;;;;6237382;28;20385;-77
2022/03/13 13:44:31;;;;;;;5.20;1.17;;;8.70;24.70;;;;;;6236150;28;20296;-77
2022/03/13 13:47:36;;;;;;;0.95;0.82;;;8.70;24.80;;;;;;6237538;28;20288;-77
2022/03/13 13:50:43;;;;;;;1.50;0.90;;;8.60;26.80;;;;;;6237540;28;20281;-77
2022/03/13 13:53:55;;;;;;;1.00;1.00;;;8.60;26.60;;;;;;6237379;28;20480;-77
2022/03/13 13:57:02;;;;;;;4.95;0.90;;;8.90;27.40;;;;;;6237304;28;20281;-78
2022/03/13 14:00:09;;;;;;;3.88;0.98;;;8.80;26.30;;;;;;6237144;28;20292;-77
2022/03/13 14:03:19;;;;;;;3.88;1.02;;;8.80;26.00;;;;;;6236914;28;20304;-77
2022/03/13 14:06:26;;;;;;;5.68;1.00;;;8.80;25.50;;;;;;6227115;28;20296;-77
2022/03/13 14:09:32;;;;;;;1.58;0.90;;;8.60;26.50;;;;;;6213420;28;20297;-77
2022/03/13 14:12:38;;;;;;;3.38;0.90;;;8.90;24.90;;;;;;6213165;28;20297;-77
2022/03/13 14:15:44;;;;;;;4.70;0.85;;;8.70;26.20;;;;;;6218149;28;20269;-78
2022/03/13 14:18:49;;;;;;;1.48;0.85;;;8.60;24.90;;;;;;6217702;28;20588;-77
2022/03/13 14:21:57;;;;;;;3.97;0.90;;;8.50;26.00;;;;;;6218483;28;20289;-77
2022/03/13 14:25:02;;;;;;;0.90;0.90;;;8.50;25.90;;;;;;6217939;28;20305;-76
2022/03/13 14:28:10;;;;;;;2.40;0.80;;;8.90;27.60;;;;;;6217163;28;20293;-75
2022/03/13 14:31:17;;;;;;;3.50;1.13;;;8.90;28.00;;;;;;6217911;28;20281;-76
2022/03/13 14:34:23;;;;;;;3.80;1.00;;;8.70;27.30;;;;;;6216843;28;20483;-76
2022/03/13 14:37:29;;;;;;;6.25;1.10;;;8.40;29.90;;;;;;6216933;28;20607;-77
2022/03/13 14:40:56;;;;;;;6.45;1.30;;;8.30;29.00;;;;;;6216838;28;20293;-76
2022/03/13 14:44:07;;;;;;;4.72;1.23;;;7.90;33.40;;;;;;6216143;28;20301;-76
2022/03/13 14:47:13;;;;;;;1.92;1.05;;;8.10;27.40;;;;;;6216109;28;20282;-76
2022/03/13 14:50:39;;;;;;;4.20;0.93;;;7.90;30.10;;;;;;6216890;28;20277;-76
2022/03/13 14:53:45;;;;;;;3.90;1.00;;;7.80;29.00;;;;;;6216264;28;20297;-76
2022/03/13 14:56:51;;;;;;;0.87;0.83;;;7.80;28.70;;;;;;6216755;28;20273;-76
2022/03/13 14:59:56;;;;;;;4.35;0.98;;;7.70;30.20;;;;;;6215606;28;20610;-75
2022/03/13 15:03:01;;;;;;;3.90;1.13;;;7.60;30.90;;;;;;6215959;28;20297;-76
2022/03/13 15:06:06;;;;;;;10.17;1.10;;;7.50;32.20;;;;;;6216121;28;20587;-76
2022/03/13 15:09:13;;;;;;;3.67;1.27;;;7.40;32.20;;;;;;6215587;28;20293;-77
2022/03/13 15:12:19;;;;;;;3.90;1.30;;;7.40;31.60;;;;;;6193218;28;20277;-75
2022/03/13 15:15:25;;;;;;;2.63;1.30;;;7.40;32.10;;;;;;6191950;28;20273;-76
2022/03/13 15:18:32;;;;;;;1.58;1.13;;;8.20;27.00;;;;;;6191338;28;20474;-76
2022/03/13 15:21:38;;;;;;;3.27;1.23;;;7.80;29.00;;;;;;6191697;28;20290;-75
2022/03/13 15:24:45;;;;;;;7.40;1.80;;;7.50;30.90;;;;;;6190017;28;20351;-76
2022/03/13 15:27:51;;;;;;;1.87;1.70;;;7.40;30.30;;;;;;6191065;28;20297;-76
2022/03/13 15:30:56;;;;;;;4.40;2.27;;;7.40;29.70;;;;;;6191255;28;20564;-77
2022/03/13 15:34:02;;;;;;;4.97;1.40;;;7.30;30.30;;;;;;6191831;28;20317;-76
2022/03/13 15:37:09;;;;;;;1.47;1.47;;;7.20;30.00;;;;;;6191347;28;20273;-77
2022/03/13 15:40:17;;;;;;;6.27;1.50;;;7.30;29.60;;;;;;6191829;28;20269;-77
2022/03/13 15:43:22;;;;;;;2.97;1.50;;;7.20;32.00;;;;;;6191289;28;20302;-77
2022/03/13 15:46:28;;;;;;;6.10;1.83;;;7.10;32.10;;;;;;6191655;28;20277;-76
2022/03/13 15:49:34;;;;;;;9.63;1.80;;;6.90;34.30;;;;;;6190696;28;20300;-76
2022/03/13 15:52:39;;;;;;;1.83;1.50;;;6.90;31.10;;;;;;6190966;28;20299;-75
2022/03/13 15:55:46;;;;;;;1.73;1.60;;;6.90;31.20;;;;;;6191355;28;20548;-75
2022/03/13 15:58:51;;;;;;;7.80;1.60;;;6.90;32.10;;;;;;6190605;28;20616;-76
2022/03/13 16:02:01;;;;;;;5.13;1.80;;;6.70;33.20;;;;;;6190526;28;20301;-76
2022/03/13 16:05:09;;;;;;;6.80;2.17;;;6.70;32.70;;;;;;6191573;28;20447;-77
2022/03/13 16:08:17;;;;;;;2.87;2.07;;;6.70;31.30;;;;;;6191490;28;20472;-77
2022/03/13 16:11:23;;;;;;;5.73;2.47;;;6.60;34.30;;;;;;6204457;28;20268;-77